createdAt,value
2023-03-10T00:00:09.461Z,11.78
2023-03-10T00:02:12.730Z,11.80
2023-03-10T00:04:15.742Z,11.84
2023-03-10T00:06:20.812Z,11.80
2023-03-10T00:08:22.878Z,11.76
2023-03-10T00:10:24.936Z,11.79
2023-03-10T00:12:28.042Z,11.79
2023-03-10T00:14:30.261Z,11.82
2023-03-10T00:16:32.355Z,11.87
2023-03-10T00:18:34.588Z,11.80
2023-03-10T00:20:36.636Z,11.85
2023-03-10T00:22:39.979Z,11.89
2023-03-10T00:24:42.041Z,11.88
2023-03-10T00:26:45.750Z,11.89
2023-03-10T00:28:48.078Z,11.80
2023-03-10T00:30:56.402Z,11.82
2023-03-10T00:32:58.494Z,11.88
2023-03-10T00:35:00.489Z,11.89
2023-03-10T00:37:02.492Z,11.79
2023-03-10T00:39:05.463Z,11.82
2023-03-10T00:41:10.750Z,11.87
2023-03-10T00:43:12.896Z,11.86
2023-03-10T00:45:14.903Z,11.87
2023-03-10T00:47:16.944Z,11.81
2023-03-10T00:49:19.399Z,11.83
2023-03-10T00:51:22.438Z,11.73
2023-03-10T00:53:25.101Z,11.72
2023-03-10T00:55:27.254Z,11.75
2023-03-10T00:57:29.252Z,11.79
2023-03-10T00:59:47.913Z,11.81
2023-03-10T01:01:52.026Z,11.80
2023-03-10T01:03:56.489Z,11.87
2023-03-10T01:05:58.530Z,11.89
2023-03-10T01:08:00.671Z,11.93
2023-03-10T01:10:02.664Z,11.85
2023-03-10T01:12:04.907Z,11.82
2023-03-10T01:14:08.517Z,11.85
2023-03-10T01:16:10.602Z,11.88
2023-03-10T01:18:12.669Z,11.87
2023-03-10T01:20:16.890Z,11.77
2023-03-10T01:22:20.265Z,11.85
2023-03-10T01:24:22.364Z,11.80
2023-03-10T01:26:24.366Z,11.85
2023-03-10T01:28:26.672Z,11.77
2023-03-10T01:30:29.957Z,11.88
2023-03-10T01:32:32.125Z,11.87
2023-03-10T01:34:35.227Z,11.84
2023-03-10T01:36:37.234Z,11.76
2023-03-10T01:38:39.887Z,11.81
2023-03-10T01:40:48.504Z,11.90
2023-03-10T01:42:50.573Z,11.89
2023-03-10T01:44:58.774Z,12.00
2023-03-10T01:47:01.005Z,11.97
2023-03-10T01:49:09.221Z,11.93
2023-03-10T01:51:11.896Z,11.90
2023-03-10T01:53:17.156Z,11.96
2023-03-10T01:55:25.700Z,11.91
2023-03-10T01:57:31.703Z,11.89
2023-03-10T01:59:34.872Z,11.97
2023-03-10T02:01:37.677Z,11.94
2023-03-10T02:03:46.047Z,11.84
2023-03-10T02:05:53.883Z,11.86
2023-03-10T02:07:56.643Z,11.98
2023-03-10T02:09:59.552Z,11.98
2023-03-10T02:12:04.410Z,12.00
2023-03-10T02:14:06.851Z,11.97
2023-03-10T02:16:09.125Z,11.95
2023-03-10T02:18:14.776Z,11.94
2023-03-10T02:20:27.416Z,11.93
2023-03-10T02:22:29.939Z,12.01
2023-03-10T02:24:35.563Z,12.02
2023-03-10T02:26:42.109Z,11.98
2023-03-10T02:28:45.312Z,12.01
2023-03-10T02:30:51.234Z,11.96
2023-03-10T02:32:58.790Z,12.03
2023-03-10T02:35:00.877Z,12.07
2023-03-10T02:37:02.846Z,12.10
2023-03-10T02:39:05.021Z,12.12
2023-03-10T02:41:16.582Z,12.18
2023-03-10T02:43:25.366Z,12.14
2023-03-10T02:45:33.293Z,12.17
2023-03-10T02:47:35.374Z,12.19
2023-03-10T02:49:37.987Z,12.22
2023-03-10T02:51:43.808Z,12.22
2023-03-10T02:53:45.858Z,12.22
2023-03-10T02:55:48.095Z,12.25
2023-03-10T02:57:50.122Z,12.26
2023-03-10T02:59:52.331Z,12.27
2023-03-10T03:01:54.549Z,12.30
2023-03-10T03:03:57.479Z,12.29
2023-03-10T03:05:59.739Z,12.32
2023-03-10T03:08:01.724Z,12.34
2023-03-10T03:10:04.631Z,12.33
2023-03-10T03:12:07.261Z,12.35
2023-03-10T03:14:09.508Z,12.29
2023-03-10T03:16:12.171Z,12.30
2023-03-10T03:18:14.271Z,12.34
2023-03-10T03:20:17.420Z,12.31
2023-03-10T03:22:19.417Z,12.34
2023-03-10T03:24:21.461Z,12.36
2023-03-10T03:26:25.762Z,12.35
2023-03-10T03:28:27.796Z,12.37
2023-03-10T03:30:30.268Z,12.39
2023-03-10T03:32:32.304Z,12.42
2023-03-10T03:34:34.383Z,12.42
2023-03-10T03:36:37.625Z,12.48
2023-03-10T03:38:40.119Z,12.45
2023-03-10T03:40:42.203Z,12.47
2023-03-10T03:42:46.691Z,12.44
2023-03-10T03:44:48.711Z,12.47
2023-03-10T03:46:50.745Z,12.45
2023-03-10T03:48:52.738Z,12.48
2023-03-10T03:50:55.034Z,12.46
2023-03-10T03:52:57.611Z,12.46
2023-03-10T03:54:59.843Z,12.46
2023-03-10T03:57:02.109Z,12.49
2023-03-10T03:59:04.120Z,12.48
2023-03-10T04:01:06.189Z,12.47
2023-03-10T04:03:08.466Z,12.48
2023-03-10T04:05:11.078Z,12.51
2023-03-10T04:07:13.126Z,12.51
2023-03-10T04:09:15.144Z,12.51
2023-03-10T04:11:17.182Z,12.53
2023-03-10T04:13:19.166Z,12.51
2023-03-10T04:15:21.377Z,12.50
2023-03-10T04:17:23.334Z,12.45
2023-03-10T04:19:25.692Z,12.43
2023-03-10T04:21:27.858Z,12.38
2023-03-10T04:23:29.825Z,12.22
2023-03-10T04:25:31.823Z,12.16
2023-03-10T04:27:34.415Z,12.03
2023-03-10T04:29:37.611Z,11.95
2023-03-10T04:31:39.821Z,11.74
2023-03-10T04:33:42.389Z,11.80
2023-03-10T04:35:47.779Z,11.72
2023-03-10T04:37:49.812Z,11.52
2023-03-10T04:39:51.908Z,11.50
2023-03-10T04:41:54.056Z,11.38
2023-03-10T04:43:56.212Z,11.28
2023-03-10T04:45:58.743Z,11.24
2023-03-10T04:48:00.757Z,11.10
2023-03-10T04:50:03.188Z,11.00
2023-03-10T04:52:05.526Z,10.99
2023-03-10T04:54:07.821Z,10.73
2023-03-10T04:56:10.861Z,10.76
2023-03-10T04:58:12.838Z,10.75
2023-03-10T05:00:15.498Z,10.67
2023-03-10T05:02:17.917Z,10.59
2023-03-10T05:04:20.018Z,10.51
2023-03-10T05:06:22.484Z,10.50
2023-03-10T05:08:24.432Z,10.47
2023-03-10T05:10:26.540Z,10.42
2023-03-10T05:12:28.563Z,10.37
2023-03-10T05:14:30.603Z,10.33
2023-03-10T05:16:32.794Z,10.30
2023-03-10T05:18:34.807Z,10.22
2023-03-10T05:20:38.023Z,10.18
2023-03-10T05:22:40.804Z,10.16
2023-03-10T05:24:43.219Z,10.20
2023-03-10T05:26:45.253Z,10.16
2023-03-10T05:28:47.175Z,10.11
2023-03-10T05:30:49.201Z,10.10
2023-03-10T05:32:51.243Z,10.08
2023-03-10T05:34:53.301Z,10.01
2023-03-10T05:36:56.536Z,9.98
2023-03-10T05:38:58.544Z,9.99
2023-03-10T05:41:00.566Z,9.99
2023-03-10T05:43:02.870Z,9.98
2023-03-10T05:45:06.439Z,9.90
2023-03-10T05:47:08.538Z,9.87
2023-03-10T05:49:11.043Z,9.83
2023-03-10T05:51:13.763Z,9.83
2023-03-10T05:53:16.135Z,9.75
2023-03-10T05:55:20.033Z,9.62
2023-03-10T05:57:22.079Z,9.68
2023-03-10T05:59:24.076Z,9.58
2023-03-10T06:01:26.196Z,9.60
2023-03-10T06:03:30.315Z,9.53
2023-03-10T06:05:32.400Z,9.49
2023-03-10T06:07:35.562Z,9.42
2023-03-10T06:09:37.610Z,9.36
2023-03-10T06:11:39.566Z,9.33
2023-03-10T06:13:41.517Z,9.33
2023-03-10T06:15:43.448Z,9.25
2023-03-10T06:17:45.392Z,9.21
2023-03-10T06:19:47.386Z,9.18
2023-03-10T06:21:50.095Z,9.22
2023-03-10T06:23:52.599Z,8.99
2023-03-10T06:25:59.089Z,9.08
2023-03-10T06:28:01.105Z,9.08
2023-03-10T06:30:03.489Z,8.94
2023-03-10T06:32:06.302Z,8.92
2023-03-10T06:34:08.383Z,8.96
2023-03-10T06:36:12.073Z,9.04
2023-03-10T06:38:14.398Z,8.93
2023-03-10T06:40:16.616Z,8.99
2023-03-10T06:42:18.675Z,8.95
2023-03-10T06:44:20.811Z,9.03
2023-03-10T06:46:23.114Z,8.98
2023-03-10T06:48:25.287Z,8.94
2023-03-10T06:50:29.340Z,8.95
2023-03-10T06:52:34.914Z,8.95
2023-03-10T06:54:37.397Z,8.86
2023-03-10T06:56:39.404Z,8.86
2023-03-10T06:58:42.215Z,8.91
2023-03-10T07:00:44.302Z,8.85
2023-03-10T07:02:46.424Z,8.86
2023-03-10T07:04:48.663Z,8.74
2023-03-10T07:06:51.150Z,8.89
2023-03-10T07:08:54.494Z,8.89
2023-03-10T07:10:56.928Z,8.70
2023-03-10T07:12:59.351Z,8.85
2023-03-10T07:15:01.498Z,8.87
2023-03-10T07:17:04.373Z,8.80
2023-03-10T07:19:06.692Z,8.82
2023-03-10T07:21:10.527Z,8.81
2023-03-10T07:23:13.198Z,8.85
2023-03-10T07:25:15.490Z,8.86
2023-03-10T07:27:17.617Z,8.81
2023-03-10T07:29:20.046Z,8.83
2023-03-10T07:31:22.286Z,8.83
2023-03-10T07:33:24.356Z,8.77
2023-03-10T07:35:26.512Z,8.82
2023-03-10T07:37:28.578Z,8.63
2023-03-10T07:39:30.728Z,8.72
2023-03-10T07:41:32.794Z,8.64
2023-03-10T07:43:34.856Z,8.60
2023-03-10T07:45:38.051Z,8.61
2023-03-10T07:47:40.101Z,8.53
2023-03-10T07:49:47.088Z,8.45
2023-03-10T07:51:49.266Z,8.42
2023-03-10T07:53:51.412Z,8.36
2023-03-10T07:55:53.974Z,8.31
2023-03-10T07:57:57.749Z,8.14
2023-03-10T08:00:00.243Z,8.11
2023-03-10T08:02:02.280Z,8.03
2023-03-10T08:04:05.410Z,7.89
2023-03-10T08:06:08.029Z,7.91
2023-03-10T08:08:11.088Z,7.92
2023-03-10T08:10:13.773Z,7.78
2023-03-10T08:12:15.778Z,7.72
2023-03-10T08:14:20.963Z,7.63
2023-03-10T08:16:24.042Z,7.65
2023-03-10T08:18:26.565Z,7.52
2023-03-10T08:20:28.666Z,7.54
2023-03-10T08:22:30.795Z,7.50
2023-03-10T08:24:33.101Z,7.55
2023-03-10T08:26:35.576Z,7.57
2023-03-10T08:28:39.066Z,7.39
2023-03-10T08:30:57.058Z,7.43
2023-03-10T08:33:04.083Z,7.29
2023-03-10T08:35:07.246Z,7.17
2023-03-10T08:37:10.729Z,7.23
2023-03-10T08:39:13.530Z,7.23
2023-03-10T08:41:19.870Z,7.04
2023-03-10T08:43:21.958Z,7.07
2023-03-10T08:45:24.241Z,7.10
2023-03-10T08:47:29.285Z,7.05
2023-03-10T08:49:32.860Z,7.05
2023-03-10T08:51:35.696Z,7.01
2023-03-10T08:53:39.102Z,6.92
2023-03-10T08:55:41.886Z,7.01
2023-03-10T08:57:43.943Z,7.07
2023-03-10T08:59:46.005Z,7.03
2023-03-10T09:01:48.353Z,7.04
2023-03-10T09:03:50.548Z,6.84
2023-03-10T09:05:52.857Z,6.88
2023-03-10T09:07:56.175Z,6.96
2023-03-10T09:09:58.564Z,6.86
2023-03-10T09:12:00.709Z,6.73
2023-03-10T09:14:04.225Z,6.74
2023-03-10T09:16:08.220Z,6.72
2023-03-10T09:18:13.259Z,6.65
2023-03-10T09:20:15.940Z,6.58
2023-03-10T09:22:18.060Z,6.50
2023-03-10T09:24:20.282Z,6.51
2023-03-10T09:26:22.920Z,6.40
2023-03-10T09:28:25.396Z,6.48
2023-03-10T09:30:27.752Z,6.38
2023-03-10T09:32:30.050Z,6.56
2023-03-10T09:34:32.451Z,6.55
2023-03-10T09:36:35.529Z,6.50
2023-03-10T09:38:38.098Z,6.59
2023-03-10T09:40:45.352Z,6.61
2023-03-10T09:42:49.195Z,6.54
2023-03-10T09:44:58.286Z,6.45
2023-03-10T09:47:11.318Z,6.48
2023-03-10T09:49:17.105Z,6.56
2023-03-10T09:51:23.191Z,6.38
2023-03-10T09:53:29.829Z,6.38
2023-03-10T09:55:44.971Z,6.35
2023-03-10T09:57:54.333Z,6.28
2023-03-10T10:00:02.553Z,6.36
2023-03-10T10:02:19.226Z,6.31
2023-03-10T10:04:30.706Z,6.43
2023-03-10T10:06:35.777Z,6.50
2023-03-10T10:08:49.065Z,6.58
2023-03-10T10:10:56.736Z,6.64
2023-03-10T10:13:03.540Z,6.71
2023-03-10T10:15:17.256Z,6.70
2023-03-10T10:17:23.022Z,6.72
2023-03-10T10:19:27.831Z,6.74
2023-03-10T10:21:44.344Z,6.76
2023-03-10T10:23:50.988Z,6.76
2023-03-10T10:25:54.920Z,6.72
2023-03-10T10:28:01.536Z,6.91
2023-03-10T10:30:09.941Z,6.75
2023-03-10T10:32:15.135Z,6.93
2023-03-10T10:34:21.756Z,6.93
2023-03-10T10:36:27.100Z,6.92
2023-03-10T10:38:32.128Z,6.98
2023-03-10T10:40:46.857Z,7.11
2023-03-10T10:42:54.296Z,7.14
2023-03-10T10:45:02.454Z,7.22
2023-03-10T10:47:05.122Z,7.21
2023-03-10T10:49:18.116Z,7.24
2023-03-10T10:51:21.032Z,7.24
2023-03-10T10:53:24.782Z,7.36
2023-03-10T10:55:34.974Z,7.28
2023-03-10T10:57:38.965Z,7.27
2023-03-10T10:59:41.080Z,7.31
2023-03-10T11:01:47.681Z,7.38
2023-03-10T11:04:03.557Z,7.46
2023-03-10T11:06:11.845Z,7.41
2023-03-10T11:08:19.499Z,7.42
2023-03-10T11:10:28.198Z,7.40
2023-03-10T11:12:38.711Z,7.53
2023-03-10T11:14:45.681Z,7.54
2023-03-10T11:16:56.092Z,7.60
2023-03-10T11:19:08.691Z,7.53
2023-03-10T11:21:14.304Z,7.48
2023-03-10T11:23:20.984Z,7.56
2023-03-10T11:25:31.726Z,7.50
2023-03-10T11:27:37.391Z,7.66
2023-03-10T11:29:43.003Z,7.59
2023-03-10T11:31:51.519Z,7.57
2023-03-10T11:34:04.160Z,7.51
2023-03-10T11:36:20.857Z,7.56
2023-03-10T11:38:29.114Z,7.39
2023-03-10T11:40:41.400Z,7.43
2023-03-10T11:42:50.798Z,7.41
2023-03-10T11:45:02.872Z,7.14
2023-03-10T11:47:05.953Z,7.38
2023-03-10T11:49:12.315Z,7.34
2023-03-10T11:51:26.746Z,7.43
2023-03-10T11:53:32.908Z,7.27
2023-03-10T11:55:36.734Z,7.42
2023-03-10T11:57:44.500Z,7.34
2023-03-10T11:59:53.558Z,7.39
2023-03-10T12:01:59.275Z,7.43
2023-03-10T12:04:09.989Z,7.36
2023-03-10T12:06:19.838Z,7.44
2023-03-10T12:08:25.950Z,7.38
2023-03-10T12:10:29.605Z,7.48
2023-03-10T12:12:36.457Z,7.56
2023-03-10T12:14:39.722Z,7.56
2023-03-10T12:16:42.505Z,7.66
2023-03-10T12:18:45.048Z,7.75
2023-03-10T12:20:47.408Z,7.66
2023-03-10T12:22:51.790Z,7.68
2023-03-10T12:24:54.037Z,7.72
2023-03-10T12:27:02.085Z,7.53
2023-03-10T12:29:10.504Z,7.71
2023-03-10T12:31:35.609Z,7.76
2023-03-10T12:33:41.425Z,7.77
2023-03-10T12:35:48.469Z,7.84
2023-03-10T12:37:50.685Z,7.87
2023-03-10T12:39:52.923Z,7.87
2023-03-10T12:41:58.627Z,7.86
2023-03-10T12:44:04.350Z,7.89
2023-03-10T12:46:11.567Z,7.94
2023-03-10T12:48:19.998Z,7.92
2023-03-10T12:50:29.744Z,7.98
2023-03-10T12:52:36.637Z,7.98
2023-03-10T12:54:43.484Z,7.99
2023-03-10T12:56:59.718Z,7.96
2023-03-10T12:59:13.849Z,7.97
2023-03-10T13:01:22.842Z,8.03
2023-03-10T13:03:28.461Z,8.02
2023-03-10T13:05:34.227Z,8.07
2023-03-10T13:07:37.603Z,8.07
2023-03-10T13:09:43.860Z,8.14
2023-03-10T13:11:55.784Z,8.21
2023-03-10T13:14:03.601Z,8.37
2023-03-10T13:16:08.420Z,8.37
2023-03-10T13:18:16.847Z,8.47
2023-03-10T13:20:19.964Z,8.51
2023-03-10T13:22:22.105Z,8.48
2023-03-10T13:24:29.060Z,8.54
2023-03-10T13:26:31.808Z,8.52
2023-03-10T13:28:35.458Z,8.57
2023-03-10T13:30:37.832Z,8.68
2023-03-10T13:32:40.142Z,8.79
2023-03-10T13:34:42.488Z,8.89
2023-03-10T13:36:45.303Z,8.95
2023-03-10T13:38:47.760Z,8.96
2023-03-10T13:40:59.225Z,8.99
2023-03-10T13:43:01.720Z,9.11
2023-03-10T13:45:17.464Z,9.07
2023-03-10T13:47:23.559Z,9.08
2023-03-10T13:49:31.405Z,9.04
2023-03-10T13:51:36.215Z,8.95
2023-03-10T13:53:38.377Z,9.05
2023-03-10T13:55:42.655Z,9.16
2023-03-10T13:57:46.640Z,9.18
2023-03-10T13:59:49.546Z,9.21
2023-03-10T14:01:55.698Z,9.22
2023-03-10T14:04:06.140Z,9.21
2023-03-10T14:06:13.140Z,9.27
2023-03-10T14:08:19.578Z,9.27
2023-03-10T14:10:21.999Z,9.45
2023-03-10T14:12:37.529Z,9.54
2023-03-10T14:14:41.893Z,9.52
2023-03-10T14:16:45.722Z,9.67
2023-03-10T14:18:47.943Z,9.79
2023-03-10T14:20:50.142Z,9.83
2023-03-10T14:22:52.342Z,10.01
2023-03-10T14:24:57.723Z,10.14
2023-03-10T14:27:00.960Z,10.21
2023-03-10T14:29:09.922Z,10.19
2023-03-10T14:31:19.357Z,10.16
2023-03-10T14:33:21.834Z,10.10
2023-03-10T14:35:25.612Z,10.11
2023-03-10T14:37:27.850Z,10.09
2023-03-10T14:39:30.924Z,10.02
2023-03-10T14:41:33.422Z,10.10
2023-03-10T14:43:35.908Z,10.30
2023-03-10T14:45:41.158Z,10.45
2023-03-10T14:47:43.711Z,10.58
2023-03-10T14:49:46.642Z,10.73
2023-03-10T14:51:49.208Z,10.59
2023-03-10T14:53:51.493Z,10.50
2023-03-10T14:55:56.341Z,10.47
2023-03-10T14:58:02.445Z,10.38
2023-03-10T15:00:07.117Z,10.27
2023-03-10T15:02:19.479Z,10.19
2023-03-10T15:04:21.988Z,10.15
2023-03-10T15:06:24.203Z,10.14
2023-03-10T15:08:28.110Z,10.01
2023-03-10T15:10:36.239Z,10.04
2023-03-10T15:12:39.246Z,9.93
2023-03-10T15:14:44.824Z,9.89
2023-03-10T15:16:47.053Z,9.82
2023-03-10T15:18:49.463Z,9.72
2023-03-10T15:20:51.624Z,9.71
2023-03-10T15:22:53.847Z,9.63
2023-03-10T15:24:55.964Z,9.60
2023-03-10T15:26:58.280Z,9.58
2023-03-10T15:29:00.925Z,9.48
2023-03-10T15:31:03.323Z,9.50
2023-03-10T15:33:05.982Z,9.58
2023-03-10T15:35:09.600Z,9.66
2023-03-10T15:37:12.782Z,9.75
2023-03-10T15:39:29.004Z,9.83
2023-03-10T15:41:36.589Z,9.95
2023-03-10T15:43:38.808Z,10.03
2023-03-10T15:45:46.927Z,10.11
2023-03-10T15:47:49.445Z,10.14
2023-03-10T15:49:51.621Z,10.18
2023-03-10T15:51:53.903Z,10.22
2023-03-10T15:53:56.156Z,10.44
2023-03-10T15:55:58.225Z,10.47
2023-03-10T15:58:00.688Z,10.43
2023-03-10T16:00:03.693Z,10.35
2023-03-10T16:02:06.093Z,10.51
2023-03-10T16:04:08.434Z,10.51
2023-03-10T16:06:16.174Z,10.48
2023-03-10T16:08:19.494Z,10.48
2023-03-10T16:10:22.045Z,10.38
2023-03-10T16:12:24.278Z,10.26
2023-03-10T16:14:27.242Z,10.26
2023-03-10T16:16:29.637Z,10.26
2023-03-10T16:18:32.038Z,10.16
2023-03-10T16:20:34.292Z,10.02
2023-03-10T16:22:40.686Z,9.97
2023-03-10T16:24:43.590Z,9.84
2023-03-10T16:26:45.804Z,9.88
2023-03-10T16:28:53.223Z,9.78
2023-03-10T16:30:56.789Z,9.58
2023-03-10T16:33:01.055Z,9.59
2023-03-10T16:35:03.857Z,9.49
2023-03-10T16:37:08.297Z,9.47
2023-03-10T16:39:12.005Z,9.47
2023-03-10T16:41:14.508Z,9.42
2023-03-10T16:43:18.036Z,9.38
2023-03-10T16:45:20.451Z,9.24
2023-03-10T16:47:22.812Z,9.33
2023-03-10T16:49:25.372Z,9.28
2023-03-10T16:51:31.274Z,9.24
2023-03-10T16:53:33.650Z,9.34
2023-03-10T16:55:35.941Z,9.30
2023-03-10T16:57:38.323Z,9.25
2023-03-10T16:59:41.579Z,9.25
2023-03-10T17:01:44.782Z,9.25
2023-03-10T17:03:49.052Z,9.17
2023-03-10T17:05:54.181Z,9.21
2023-03-10T17:08:02.599Z,9.18
2023-03-10T17:10:05.336Z,9.20
2023-03-10T17:12:08.034Z,9.14
2023-03-10T17:14:14.385Z,9.14
2023-03-10T17:16:17.949Z,9.14
2023-03-10T17:18:20.189Z,9.10
2023-03-10T17:20:22.531Z,9.05
2023-03-10T17:22:25.120Z,9.01
2023-03-10T17:24:28.364Z,9.03
2023-03-10T17:26:30.900Z,9.00
2023-03-10T17:28:33.032Z,9.00
2023-03-10T17:30:35.669Z,8.85
2023-03-10T17:32:38.264Z,8.82
2023-03-10T17:34:41.582Z,8.86
2023-03-10T17:36:50.504Z,8.77
2023-03-10T17:38:54.454Z,8.81
2023-03-10T17:40:56.593Z,8.78
2023-03-10T17:43:08.396Z,8.77
2023-03-10T17:45:15.219Z,8.73
2023-03-10T17:47:17.375Z,8.72
2023-03-10T17:49:19.690Z,8.68
2023-03-10T17:51:26.093Z,8.67
2023-03-10T17:53:28.643Z,8.63
2023-03-10T17:55:30.701Z,8.59
2023-03-10T17:57:32.808Z,8.58
2023-03-10T17:59:39.207Z,8.55
2023-03-10T18:01:44.102Z,8.53
2023-03-10T18:03:48.351Z,8.50
2023-03-10T18:05:50.786Z,8.38
2023-03-10T18:07:53.902Z,8.35
2023-03-10T18:09:57.720Z,8.33
2023-03-10T18:11:59.795Z,8.30
2023-03-10T18:14:03.754Z,8.29
2023-03-10T18:16:08.137Z,8.30
2023-03-10T18:18:10.183Z,8.20
2023-03-10T18:20:14.985Z,8.23
2023-03-10T18:22:16.946Z,8.23
2023-03-10T18:24:19.051Z,8.21
2023-03-10T18:26:24.307Z,8.21
2023-03-10T18:28:27.126Z,8.18
2023-03-10T18:30:29.504Z,8.07
2023-03-10T18:32:31.655Z,8.10
2023-03-10T18:34:33.662Z,8.09
2023-03-10T18:36:36.038Z,8.09
2023-03-10T18:38:38.119Z,8.11
2023-03-10T18:40:41.028Z,8.08
2023-03-10T18:42:43.082Z,8.06
2023-03-10T18:44:46.722Z,8.06
2023-03-10T18:46:48.871Z,8.05
2023-03-10T18:48:55.705Z,8.06
2023-03-10T18:50:59.590Z,8.03
2023-03-10T18:53:01.826Z,8.03
2023-03-10T18:55:05.141Z,8.00
2023-03-10T18:57:07.162Z,8.05
2023-03-10T18:59:10.451Z,8.04
2023-03-10T19:01:14.568Z,8.02
2023-03-10T19:03:17.444Z,8.01
2023-03-10T19:05:19.716Z,8.00
2023-03-10T19:07:21.837Z,7.97
2023-03-10T19:09:24.599Z,7.96
2023-03-10T19:11:28.014Z,7.96
2023-03-10T19:13:30.585Z,7.92
2023-03-10T19:15:32.747Z,7.90
2023-03-10T19:17:36.361Z,7.94
2023-03-10T19:19:38.358Z,7.89
2023-03-10T19:21:40.402Z,7.88
2023-03-10T19:23:44.166Z,7.85
2023-03-10T19:25:46.259Z,7.85
2023-03-10T19:27:49.135Z,7.84
2023-03-10T19:29:52.733Z,7.82
2023-03-10T19:31:54.680Z,7.77
2023-03-10T19:33:56.746Z,7.76
2023-03-10T19:36:01.835Z,7.70
2023-03-10T19:38:05.744Z,7.69
2023-03-10T19:40:08.747Z,7.71
2023-03-10T19:42:11.769Z,7.69
2023-03-10T19:44:13.758Z,7.67
2023-03-10T19:46:16.649Z,7.66
2023-03-10T19:48:18.829Z,7.67
2023-03-10T19:50:21.616Z,7.66
2023-03-10T19:52:24.099Z,7.65
2023-03-10T19:54:26.076Z,7.62
2023-03-10T19:56:28.037Z,7.58
2023-03-10T19:58:31.472Z,7.56
2023-03-10T20:00:36.392Z,7.59
2023-03-10T20:02:42.206Z,7.57
2023-03-10T20:04:45.021Z,7.55
2023-03-10T20:06:46.997Z,7.55
2023-03-10T20:08:49.157Z,7.54
2023-03-10T20:10:51.178Z,7.58
2023-03-10T20:12:53.313Z,7.60
2023-03-10T20:14:58.794Z,7.63
2023-03-10T20:17:00.767Z,7.65
2023-03-10T20:19:02.965Z,7.67
2023-03-10T20:21:06.231Z,7.66
2023-03-10T20:23:08.745Z,7.67
2023-03-10T20:25:12.745Z,7.68
2023-03-10T20:27:14.720Z,7.65
2023-03-10T20:29:16.914Z,7.68
2023-03-10T20:31:21.495Z,7.65
2023-03-10T20:33:23.574Z,7.62
2023-03-10T20:35:26.770Z,7.56
2023-03-10T20:37:28.715Z,7.56
2023-03-10T20:39:30.709Z,7.51
2023-03-10T20:41:56.197Z,7.48
2023-03-10T20:43:58.182Z,7.42
2023-03-10T20:46:00.210Z,7.44
2023-03-10T20:48:02.288Z,7.43
2023-03-10T20:50:06.485Z,7.42
2023-03-10T20:52:08.413Z,7.39
2023-03-10T20:54:10.393Z,7.33
2023-03-10T20:56:14.409Z,7.33
2023-03-10T20:58:16.517Z,7.33
2023-03-10T21:00:21.364Z,7.34
2023-03-10T21:02:23.243Z,7.33
2023-03-10T21:04:27.564Z,7.26
2023-03-10T21:06:30.111Z,7.28
2023-03-10T21:08:32.066Z,7.28
2023-03-10T21:10:34.592Z,7.26
2023-03-10T21:12:36.565Z,7.23
2023-03-10T21:14:38.541Z,7.24
2023-03-10T21:16:42.160Z,7.21
2023-03-10T21:18:44.341Z,7.25
2023-03-10T21:20:46.424Z,7.19
2023-03-10T21:22:48.454Z,7.20
2023-03-10T21:24:50.935Z,7.19
2023-03-10T21:26:52.797Z,7.20
2023-03-10T21:28:54.711Z,7.16
2023-03-10T21:30:56.567Z,7.16
2023-03-10T21:32:58.798Z,7.16
2023-03-10T21:35:00.810Z,7.14
2023-03-10T21:37:02.845Z,7.17
2023-03-10T21:39:05.646Z,7.18
2023-03-10T21:41:09.057Z,7.16
2023-03-10T21:43:11.781Z,7.14
2023-03-10T21:45:16.652Z,7.11
2023-03-10T21:47:18.584Z,7.14
2023-03-10T21:49:20.526Z,7.13
2023-03-10T21:51:24.431Z,7.09
2023-03-10T21:53:27.091Z,7.07
2023-03-10T21:55:29.568Z,7.07
2023-03-10T21:57:31.634Z,7.09
2023-03-10T21:59:33.578Z,7.07
2023-03-10T22:01:35.744Z,7.05
2023-03-10T22:03:37.752Z,7.03
2023-03-10T22:05:39.698Z,7.06
2023-03-10T22:07:42.264Z,6.99
2023-03-10T22:09:44.149Z,6.98
2023-03-10T22:11:46.372Z,7.01
2023-03-10T22:13:48.690Z,6.99
2023-03-10T22:15:50.674Z,6.98
2023-03-10T22:17:54.511Z,6.97
2023-03-10T22:19:56.544Z,6.98
2023-03-10T22:21:58.654Z,6.92
2023-03-10T22:24:00.579Z,6.90
2023-03-10T22:26:02.512Z,6.91
2023-03-10T22:28:05.032Z,6.89
2023-03-10T22:30:08.802Z,6.89
2023-03-10T22:32:11.220Z,6.77
2023-03-10T22:34:13.261Z,6.77
2023-03-10T22:36:15.259Z,6.83
2023-03-10T22:38:17.933Z,6.85
2023-03-10T22:40:23.072Z,6.90
2023-03-10T22:42:25.169Z,6.82
2023-03-10T22:44:27.072Z,6.74
2023-03-10T22:46:29.140Z,6.74
2023-03-10T22:48:31.100Z,6.81
2023-03-10T22:50:36.659Z,6.73
2023-03-10T22:52:38.643Z,6.70
2023-03-10T22:54:40.644Z,6.77
2023-03-10T22:56:42.488Z,6.76
2023-03-10T22:58:44.541Z,6.77
2023-03-10T23:00:46.565Z,6.79
2023-03-10T23:02:50.149Z,6.79
2023-03-10T23:04:52.150Z,6.83
2023-03-10T23:06:54.171Z,6.83
2023-03-10T23:08:57.146Z,6.83
2023-03-10T23:10:59.131Z,6.85
2023-03-10T23:13:03.275Z,6.89
2023-03-10T23:15:12.182Z,6.94
2023-03-10T23:17:17.220Z,6.89
2023-03-10T23:19:19.795Z,6.93
2023-03-10T23:21:21.838Z,6.92
2023-03-10T23:23:24.007Z,6.93
2023-03-10T23:25:29.688Z,6.98
2023-03-10T23:27:31.655Z,6.97
2023-03-10T23:29:33.672Z,6.95
2023-03-10T23:31:35.757Z,6.96
2023-03-10T23:33:37.722Z,6.98
2023-03-10T23:35:39.770Z,6.98
2023-03-10T23:37:41.865Z,6.93
2023-03-10T23:39:43.710Z,6.91
2023-03-10T23:41:45.671Z,6.98
2023-03-10T23:43:47.812Z,6.93
2023-03-10T23:45:50.079Z,6.91
2023-03-10T23:47:53.293Z,6.88
2023-03-10T23:49:56.252Z,6.84
2023-03-10T23:51:58.183Z,6.84
2023-03-10T23:54:00.313Z,6.80
2023-03-10T23:56:02.171Z,6.77
2023-03-10T23:58:05.148Z,6.78
